Observations for SOUTHEND-ON-SEA, United Kingdom (EGMC)

EGMC 231120Z 20008KT 9000 FEW013 BKN015 13/10 Q1017 
EGMC 231050Z 21009KT 9000 FEW006 BKN017 13/10 Q1018 
EGMC 231020Z 21011KT 8000 VCSH BKN018 OVC040 13/10 Q1018
EGMC 230950Z 21007KT 9999 BKN027 12/09 Q1018
EGMC 230920Z 20006KT 9999 FEW023 BKN035 12/09 Q1018 
EGMC 230850Z 19006KT 9999 FEW037 12/09 Q1018
EGMC 230820Z 18005KT CAVOK 11/08 Q1018  
EGMC 230750Z 21006KT 9999 FEW047 11/07 Q1018
EGMC 230720Z 23007KT CAVOK 11/07 Q1018  
EGMC 230650Z 24010KT CAVOK 11/07 Q1018  
EGMC 230620Z 24010KT 9999 SCT045 11/07 Q1018
EGMC 230550Z 24008KT 9999 FEW042 BKN047 11/07 Q1018 
EGMC 230520Z 24008KT 9999 BKN043 11/08 Q1018
EGMC 230450Z 25010KT 9999 BKN048 11/07 Q1018
EGMC 230420Z 25009KT 9999 BKN049 11/07 Q1018
EGMC 230350Z 25010KT CAVOK 10/07 Q1018  
EGMC 230250Z 25009KT CAVOK 10/06 Q1018  
EGMC 230050Z 25008KT CAVOK 10/06 Q1018  
EGMC 222350Z 25008KT CAVOK 10/06 Q1018  
EGMC 222320Z 25006KT CAVOK 10/06 Q1018  
EGMC 222220Z 25010KT CAVOK 10/06 Q1017  
EGMC 222150Z 25010KT CAVOK 10/05 Q1017  
EGMC 222120Z 25010KT CAVOK 10/05 Q1017  
EGMC 222050Z 26009KT CAVOK 10/05 Q1017  
EGMC 222020Z 25007KT CAVOK 10/05 Q1017  
EGMC 221950Z 26008KT CAVOK 10/05 Q1016  
EGMC 221920Z 26010KT CAVOK 10/05 Q1016  
EGMC 221850Z 26010KT CAVOK 10/05 Q1016  
EGMC 221820Z 27011KT CAVOK 11/05 Q1015  
EGMC 221750Z 27010KT CAVOK 11/05 Q1015  
EGMC 221720Z 27013KT 9999 FEW040 11/05 Q1015
EGMC 221650Z 27014G24KT 9999 FEW040 12/05 Q1014 
EGMC 221620Z 29014G24KT 9999 FEW045 12/03 Q1014 
EGMC 221550Z 28014KT 9999 FEW048 13/03 Q1013
EGMC 221520Z 27014KT 9999 FEW048 13/02 Q1013
EGMC 221450Z 27017KT 9999 SCT048 13/02 Q1013
EGMC 221420Z 27016G27KT 9999 SCT045 13/02 Q1013 
EGMC 221350Z 27019KT 9999 BKN042 13/02 Q1013
EGMC 221320Z 27017KT 9999 BKN042 12/03 Q1013
EGMC 221250Z 26017KT 9999 BKN041 12/03 Q1013
EGMC 221220Z 27019KT 9999 SCT039 13/03 Q1012
EGMC 221150Z 27016KT 9999 BKN039 12/03 Q1012
EGMC 221120Z 28017KT 9999 BKN038 12/03 Q1012
EGMC 221050Z 27017KT 9999 FEW036 11/04 Q1012